createdAt,value
2023-05-07T00:01:30.660Z,8.80
2023-05-07T00:06:33.385Z,9.50
2023-05-07T00:11:37.103Z,10.18
2023-05-07T00:16:38.820Z,10.10
2023-05-07T00:21:40.286Z,9.75
2023-05-07T00:26:41.694Z,9.57
2023-05-07T00:31:44.503Z,9.32
2023-05-07T00:36:46.424Z,8.05
2023-05-07T00:41:48.336Z,8.38
2023-05-07T00:46:50.946Z,7.97
2023-05-07T00:51:52.444Z,8.98
2023-05-07T00:56:55.037Z,8.80
2023-05-07T01:01:56.468Z,8.02
2023-05-07T01:06:59.255Z,7.90
2023-05-07T01:12:01.440Z,8.07
2023-05-07T01:17:02.988Z,8.63
2023-05-07T01:22:09.689Z,8.00
2023-05-07T01:27:11.310Z,6.95
2023-05-07T01:32:13.364Z,7.53
2023-05-07T01:37:15.404Z,7.45
2023-05-07T01:42:16.782Z,8.23
2023-05-07T01:47:18.469Z,7.60
2023-05-07T01:52:20.123Z,7.03
2023-05-07T01:57:21.880Z,5.55
2023-05-07T02:02:23.480Z,5.60
2023-05-07T02:07:25.763Z,5.18
2023-05-07T02:12:27.265Z,5.63
2023-05-07T02:17:28.734Z,5.25
2023-05-07T02:22:30.155Z,5.75
2023-05-07T02:27:31.599Z,5.32
2023-05-07T02:32:33.105Z,4.70
2023-05-07T02:37:34.627Z,4.90
2023-05-07T02:42:36.219Z,4.38
2023-05-07T02:47:37.730Z,4.70
2023-05-07T02:52:40.689Z,4.75
2023-05-07T02:57:42.197Z,4.90
2023-05-07T03:02:43.637Z,4.85
2023-05-07T03:07:47.156Z,4.50
2023-05-07T03:12:48.647Z,5.30
2023-05-07T03:17:50.085Z,4.90
2023-05-07T03:22:51.560Z,4.55
2023-05-07T03:27:52.998Z,5.05
2023-05-07T03:32:54.421Z,5.47
2023-05-07T03:37:56.648Z,4.93
2023-05-07T03:42:58.082Z,5.68
2023-05-07T03:47:59.505Z,5.28
2023-05-07T03:53:01.041Z,5.65
2023-05-07T03:58:02.472Z,5.63
2023-05-07T04:03:05.570Z,5.38
2023-05-07T04:08:07.124Z,6.03
2023-05-07T04:13:08.606Z,6.15
2023-05-07T04:18:10.063Z,7.20
2023-05-07T04:23:11.738Z,7.60
2023-05-07T04:28:13.537Z,9.95
2023-05-07T04:33:17.073Z,10.52
2023-05-07T04:38:19.627Z,11.40
2023-05-07T04:43:21.649Z,11.77
2023-05-07T04:48:23.077Z,12.25
2023-05-07T04:53:24.686Z,12.23
2023-05-07T04:58:26.125Z,11.82
2023-05-07T05:03:27.675Z,12.38
2023-05-07T05:08:33.043Z,12.60
2023-05-07T05:13:34.433Z,11.82
2023-05-07T05:18:35.950Z,12.23
2023-05-07T05:23:37.429Z,10.57
2023-05-07T05:28:38.849Z,11.30
2023-05-07T05:33:41.004Z,10.80
2023-05-07T05:38:42.458Z,10.35
2023-05-07T05:43:43.866Z,10.32
2023-05-07T05:48:45.275Z,10.82
2023-05-07T05:53:48.255Z,10.88
2023-05-07T05:58:49.713Z,10.63
2023-05-07T06:03:51.138Z,12.30
2023-05-07T06:08:52.565Z,12.30
2023-05-07T06:13:54.016Z,11.38
2023-05-07T06:18:55.454Z,11.80
2023-05-07T06:23:56.890Z,11.65
2023-05-07T06:28:58.312Z,12.02
2023-05-07T06:34:00.201Z,12.52
2023-05-07T06:39:01.627Z,12.65
2023-05-07T06:44:03.737Z,13.10
2023-05-07T06:49:05.258Z,12.70
2023-05-07T06:54:06.777Z,12.60
2023-05-07T06:59:08.270Z,11.82
2023-05-07T07:04:09.740Z,12.95
2023-05-07T07:09:11.348Z,12.45
2023-05-07T07:14:12.772Z,12.07
2023-05-07T07:19:16.780Z,12.48
2023-05-07T07:24:22.101Z,13.93
2023-05-07T07:29:23.722Z,12.93
2023-05-07T07:34:25.276Z,13.25
2023-05-07T07:39:26.737Z,13.23
2023-05-07T07:44:29.213Z,13.55
2023-05-07T07:49:30.756Z,12.30
2023-05-07T07:54:32.304Z,13.05
2023-05-07T07:59:33.804Z,13.43
2023-05-07T08:04:35.700Z,12.75
2023-05-07T08:09:40.609Z,11.77
2023-05-07T08:14:42.105Z,14.07
2023-05-07T08:19:44.528Z,12.50
2023-05-07T08:24:46.139Z,12.90
2023-05-07T08:29:49.084Z,14.75
2023-05-07T08:34:50.616Z,15.57
2023-05-07T08:39:52.030Z,14.27
2023-05-07T08:44:56.681Z,13.40
2023-05-07T08:49:58.755Z,13.63
2023-05-07T08:55:01.335Z,14.25
2023-05-07T09:00:03.996Z,14.65
2023-05-07T09:05:05.711Z,13.43
2023-05-07T09:10:07.676Z,12.95
2023-05-07T09:15:09.756Z,16.17
2023-05-07T09:20:11.567Z,15.25
2023-05-07T09:25:13.431Z,14.40
2023-05-07T09:30:15.166Z,13.10
2023-05-07T09:35:22.891Z,13.60
2023-05-07T09:40:25.180Z,14.00
2023-05-07T09:45:27.153Z,16.63
2023-05-07T09:50:29.599Z,14.55
2023-05-07T09:55:31.665Z,15.20
2023-05-07T10:00:35.035Z,13.45
2023-05-07T10:05:37.012Z,13.75
2023-05-07T10:10:38.972Z,14.25
2023-05-07T10:15:40.600Z,15.07
2023-05-07T10:20:45.038Z,14.02
2023-05-07T10:25:46.504Z,15.65
2023-05-07T10:30:57.226Z,12.20
2023-05-07T10:36:00.265Z,14.50
2023-05-07T10:41:02.210Z,14.07
2023-05-07T10:46:15.679Z,14.68
2023-05-07T10:51:21.745Z,13.40
2023-05-07T10:56:23.181Z,15.32
2023-05-07T11:01:43.186Z,15.90
2023-05-07T11:07:04.667Z,13.82
2023-05-07T11:12:06.192Z,14.77
2023-05-07T11:17:08.003Z,15.57
2023-05-07T11:22:29.373Z,14.80
2023-05-07T11:27:31.064Z,13.52
2023-05-07T11:32:33.129Z,13.93
2023-05-07T11:37:34.645Z,13.50
2023-05-07T11:42:38.502Z,14.98
2023-05-07T11:47:42.670Z,14.57
2023-05-07T11:52:51.251Z,13.65
2023-05-07T11:57:52.951Z,13.83
2023-05-07T12:02:54.547Z,13.27
2023-05-07T12:07:58.917Z,14.45
2023-05-07T12:13:00.430Z,13.73
2023-05-07T12:18:02.232Z,12.38
2023-05-07T12:23:04.089Z,12.27
2023-05-07T12:28:08.785Z,11.70
2023-05-07T12:33:10.740Z,13.25
2023-05-07T12:38:13.236Z,13.70
2023-05-07T12:43:20.962Z,10.93
2023-05-07T12:48:22.747Z,11.30
2023-05-07T12:53:25.639Z,11.60
2023-05-07T12:58:31.227Z,11.63
2023-05-07T13:03:33.615Z,11.90
2023-05-07T13:08:37.303Z,11.35
2023-05-07T13:13:39.797Z,11.38
2023-05-07T13:18:41.893Z,11.35
2023-05-07T13:23:43.570Z,11.90
2023-05-07T13:28:45.132Z,12.13
2023-05-07T13:33:46.574Z,11.57
2023-05-07T13:38:48.104Z,12.75
2023-05-07T13:43:49.637Z,12.07
2023-05-07T13:48:52.111Z,12.43
2023-05-07T13:53:53.614Z,12.63
2023-05-07T13:58:59.961Z,11.43
2023-05-07T14:04:02.195Z,9.85
2023-05-07T14:09:03.725Z,9.60
2023-05-07T14:14:05.147Z,7.85
2023-05-07T14:19:06.665Z,10.55
2023-05-07T14:24:09.367Z,10.60
2023-05-07T14:29:10.744Z,12.15
2023-05-07T14:34:12.252Z,11.48
2023-05-07T14:39:14.427Z,9.88
2023-05-07T14:44:16.331Z,10.25
2023-05-07T14:49:18.209Z,8.57
2023-05-07T14:54:19.630Z,10.13
2023-05-07T14:59:22.210Z,8.45
2023-05-07T15:04:24.557Z,7.57
2023-05-07T15:09:25.977Z,8.95
2023-05-07T15:14:27.386Z,8.27
2023-05-07T15:19:30.363Z,9.00
2023-05-07T15:24:32.020Z,9.80
2023-05-07T15:29:33.493Z,9.40
2023-05-07T15:34:34.935Z,9.95
2023-05-07T15:39:36.460Z,9.38
2023-05-07T15:44:38.177Z,9.30
2023-05-07T15:49:39.607Z,9.82
2023-05-07T15:54:41.086Z,9.75
2023-05-07T15:59:42.583Z,7.43
2023-05-07T16:04:44.051Z,9.05
2023-05-07T16:09:45.826Z,7.20
2023-05-07T16:14:47.227Z,8.02
2023-05-07T16:19:50.387Z,7.10
2023-05-07T16:24:52.159Z,9.23
2023-05-07T16:29:53.634Z,9.23
2023-05-07T16:34:55.015Z,8.57
2023-05-07T16:40:00.745Z,9.70
2023-05-07T16:45:03.165Z,9.52
2023-05-07T16:50:05.922Z,8.80
2023-05-07T16:55:07.661Z,10.27
2023-05-07T17:00:09.509Z,11.10
2023-05-07T17:05:11.338Z,10.40
2023-05-07T17:10:12.993Z,11.35
2023-05-07T17:15:14.634Z,11.35
2023-05-07T17:20:16.291Z,11.23
2023-05-07T17:25:19.357Z,12.38
2023-05-07T17:30:20.848Z,12.35
2023-05-07T17:35:22.389Z,12.13
2023-05-07T17:40:23.881Z,13.18
2023-05-07T17:45:25.387Z,14.27
2023-05-07T17:50:27.021Z,12.88
2023-05-07T17:55:29.392Z,11.07
2023-05-07T18:00:30.883Z,11.98
2023-05-07T18:05:32.407Z,12.98
2023-05-07T18:10:33.928Z,12.13
2023-05-07T18:15:35.396Z,10.35
2023-05-07T18:20:36.792Z,8.50
2023-05-07T18:25:38.211Z,7.78
2023-05-07T18:30:39.641Z,6.93
2023-05-07T18:35:41.036Z,7.07
2023-05-07T18:40:44.130Z,6.80
2023-05-07T18:45:48.730Z,6.72
2023-05-07T18:50:50.536Z,6.45
2023-05-07T18:55:52.378Z,6.05
2023-05-07T19:00:53.997Z,5.53
2023-05-07T19:05:56.600Z,6.47
2023-05-07T19:10:58.517Z,7.07
2023-05-07T19:16:00.102Z,6.10
2023-05-07T19:21:01.885Z,5.72
2023-05-07T19:26:03.385Z,6.18
2023-05-07T19:31:05.690Z,6.07
2023-05-07T19:36:07.297Z,6.18
2023-05-07T19:41:09.268Z,6.25
2023-05-07T19:46:11.230Z,6.65
2023-05-07T19:51:13.406Z,6.03
2023-05-07T19:56:15.934Z,5.78
2023-05-07T20:01:17.639Z,5.85
2023-05-07T20:06:19.546Z,6.30
2023-05-07T20:11:21.670Z,5.90
2023-05-07T20:16:23.302Z,6.20
2023-05-07T20:21:24.745Z,5.28
2023-05-07T20:26:26.821Z,5.25
2023-05-07T20:31:28.285Z,5.55
2023-05-07T20:36:29.864Z,5.32
2023-05-07T20:41:31.334Z,5.35
2023-05-07T20:46:32.848Z,5.50
2023-05-07T20:51:34.664Z,5.03
2023-05-07T20:56:36.145Z,5.40
2023-05-07T21:01:37.785Z,4.72
2023-05-07T21:06:39.220Z,5.22
2023-05-07T21:11:40.641Z,5.90
2023-05-07T21:16:43.090Z,5.18
2023-05-07T21:21:44.601Z,6.18
2023-05-07T21:26:46.036Z,7.53
2023-05-07T21:31:47.702Z,7.40
2023-05-07T21:36:49.138Z,6.88
2023-05-07T21:41:50.586Z,8.20
2023-05-07T21:46:52.044Z,8.35
2023-05-07T21:51:53.719Z,8.85
2023-05-07T21:56:55.095Z,9.63
2023-05-07T22:01:56.573Z,8.80
2023-05-07T22:06:58.098Z,9.27
2023-05-07T22:11:59.525Z,11.38
2023-05-07T22:17:01.040Z,10.23
2023-05-07T22:22:02.497Z,11.20
2023-05-07T22:27:03.958Z,12.43
2023-05-07T22:32:05.600Z,13.25
2023-05-07T22:37:07.049Z,12.75
2023-05-07T22:42:08.487Z,14.07
2023-05-07T22:47:10.006Z,13.45
2023-05-07T22:52:11.545Z,11.40
2023-05-07T22:57:12.989Z,11.57
2023-05-07T23:02:14.511Z,10.90
2023-05-07T23:07:15.897Z,11.50
2023-05-07T23:12:17.292Z,10.50
2023-05-07T23:17:18.743Z,9.85
2023-05-07T23:22:21.411Z,10.10
2023-05-07T23:27:22.812Z,11.25
2023-05-07T23:32:24.369Z,11.98
2023-05-07T23:37:25.961Z,10.60
2023-05-07T23:42:28.459Z,10.95
2023-05-07T23:47:30.477Z,11.07
2023-05-07T23:52:31.925Z,11.98
2023-05-07T23:57:33.331Z,11.38
